createdAt,value
2018-11-05T00:00:12.369Z,1001.43
2018-11-05T00:01:12.789Z,1001.52
2018-11-05T00:02:13.058Z,1001.54
2018-11-05T00:03:13.361Z,1001.47
2018-11-05T00:04:14.060Z,1001.46
2018-11-05T00:05:14.436Z,1001.45
2018-11-05T00:06:14.245Z,1001.48
2018-11-05T00:07:14.560Z,1001.50
2018-11-05T00:08:14.884Z,1001.45
2018-11-05T00:09:15.329Z,1001.52
2018-11-05T00:10:16.106Z,1001.58
2018-11-05T00:11:15.915Z,1001.43
2018-11-05T00:12:16.232Z,1001.45
2018-11-05T00:13:16.545Z,1001.49
2018-11-05T00:14:16.869Z,1001.42
2018-11-05T00:15:17.177Z,1001.43
2018-11-05T00:16:17.507Z,1001.45
2018-11-05T00:17:17.830Z,1001.50
2018-11-05T00:18:18.705Z,1001.38
2018-11-05T00:19:19.530Z,1001.38
2018-11-05T00:20:19.756Z,1001.38
2018-11-05T00:21:19.855Z,1001.34
2018-11-05T00:22:19.958Z,1001.28
2018-11-05T00:23:20.277Z,1001.33
2018-11-05T00:24:20.587Z,1001.24
2018-11-05T00:25:21.013Z,1001.28
2018-11-05T00:26:21.321Z,1001.21
2018-11-05T00:27:21.429Z,1001.16
2018-11-05T00:28:21.841Z,1001.22
2018-11-05T00:29:22.043Z,1001.11
2018-11-05T00:30:21.962Z,1001.15
2018-11-05T00:31:22.199Z,1001.15
2018-11-05T00:32:22.410Z,1001.16
2018-11-05T00:33:22.653Z,1001.16
2018-11-05T00:34:22.752Z,1001.15
2018-11-05T00:35:22.903Z,1001.14
2018-11-05T00:36:23.092Z,1001.14
2018-11-05T00:37:23.236Z,1001.14
2018-11-05T00:38:23.401Z,1001.17
2018-11-05T00:39:23.612Z,1001.13
2018-11-05T00:40:23.940Z,1001.12
2018-11-05T00:41:24.135Z,1001.09
2018-11-05T00:42:24.144Z,1000.98
2018-11-05T00:43:24.072Z,1001.01
2018-11-05T00:44:24.497Z,1001.10
2018-11-05T00:45:24.919Z,1001.08
2018-11-05T00:46:25.173Z,1001.01
2018-11-05T00:47:25.498Z,1001.03
2018-11-05T00:48:25.895Z,1001.03
2018-11-05T00:49:26.213Z,1001.12
2018-11-05T00:50:26.543Z,1001.09
2018-11-05T00:51:26.857Z,1001.04
2018-11-05T00:52:27.152Z,1001.01
2018-11-05T00:53:27.439Z,1000.99
2018-11-05T00:54:27.771Z,1001.06
2018-11-05T00:55:28.140Z,1001.02
2018-11-05T00:56:28.536Z,1000.92
2018-11-05T00:57:28.909Z,1001.01
2018-11-05T00:58:29.241Z,1001.06
2018-11-05T00:59:29.658Z,1001.02
2018-11-05T01:00:30.096Z,1001.01
2018-11-05T01:01:31.097Z,1001.03
2018-11-05T01:02:30.957Z,1001.03
2018-11-05T01:03:31.315Z,1000.98
2018-11-05T01:04:31.773Z,1000.99
2018-11-05T01:05:32.170Z,1000.91
2018-11-05T01:06:32.452Z,1000.86
2018-11-05T01:07:32.910Z,1000.89
2018-11-05T01:08:33.972Z,1000.81
2018-11-05T01:10:34.414Z,1000.82
2018-11-05T01:11:34.512Z,1000.79
2018-11-05T01:12:35.058Z,1000.74
2018-11-05T01:13:35.345Z,1000.84
2018-11-05T01:14:35.761Z,1000.80
2018-11-05T01:15:36.189Z,1000.81
2018-11-05T01:16:36.695Z,1000.83
2018-11-05T01:17:36.814Z,1000.81
2018-11-05T01:18:36.711Z,1000.87
2018-11-05T01:19:36.806Z,1000.88
2018-11-05T01:20:36.934Z,1000.89
2018-11-05T01:21:36.996Z,1000.91
2018-11-05T01:22:36.914Z,1000.92
2018-11-05T01:23:37.242Z,1000.90
2018-11-05T01:24:37.216Z,1000.90
2018-11-05T01:25:37.414Z,1000.92
2018-11-05T01:26:37.499Z,1000.96
2018-11-05T01:27:37.630Z,1000.90
2018-11-05T01:28:37.711Z,1000.80
2018-11-05T01:29:37.835Z,1000.84
2018-11-05T01:30:37.941Z,1000.75
2018-11-05T01:31:38.075Z,1000.78
2018-11-05T01:32:38.265Z,1000.71
2018-11-05T01:33:38.434Z,1000.74
2018-11-05T01:34:38.609Z,1000.74
2018-11-05T01:35:38.727Z,1000.69
2018-11-05T01:36:38.919Z,1000.69
2018-11-05T01:37:38.875Z,1000.72
2018-11-05T01:38:39.002Z,1000.72
2018-11-05T01:39:39.107Z,1000.61
2018-11-05T01:40:39.167Z,1000.66
2018-11-05T01:41:39.393Z,1000.64
2018-11-05T01:42:39.285Z,1000.54
2018-11-05T01:43:39.767Z,1000.63
2018-11-05T01:44:39.547Z,1000.61
2018-11-05T01:45:39.856Z,1000.58
2018-11-05T01:46:40.212Z,1000.45
2018-11-05T01:47:40.601Z,1000.45
2018-11-05T01:48:40.631Z,1000.40
2018-11-05T01:49:40.946Z,1000.38
2018-11-05T01:50:41.244Z,1000.35
2018-11-05T01:51:41.572Z,1000.39
2018-11-05T01:52:41.848Z,1000.45
2018-11-05T01:53:42.026Z,1000.41
2018-11-05T01:54:42.400Z,1000.52
2018-11-05T01:55:42.824Z,1000.48
2018-11-05T01:56:43.131Z,1000.61
2018-11-05T01:57:43.447Z,1000.62
2018-11-05T01:58:43.758Z,1000.59
2018-11-05T01:59:44.290Z,1000.51
2018-11-05T02:00:44.174Z,1000.55
2018-11-05T02:01:44.502Z,1000.51
2018-11-05T02:02:44.916Z,1000.47
2018-11-05T02:03:45.059Z,1000.41
2018-11-05T02:04:45.443Z,1000.47
2018-11-05T02:05:45.740Z,1000.41
2018-11-05T02:06:46.209Z,1000.45
2018-11-05T02:07:46.607Z,1000.49
2018-11-05T02:08:46.940Z,1000.42
2018-11-05T02:09:47.341Z,1000.51
2018-11-05T02:10:47.730Z,1000.41
2018-11-05T02:11:48.329Z,1000.48
2018-11-05T02:12:49.040Z,1000.34
2018-11-05T02:13:49.253Z,1000.37
2018-11-05T02:14:49.562Z,1000.35
2018-11-05T02:15:49.840Z,1000.34
2018-11-05T02:16:50.110Z,1000.34
2018-11-05T02:17:50.505Z,1000.34
2018-11-05T02:18:51.024Z,1000.30
2018-11-05T02:19:51.033Z,1000.31
2018-11-05T02:20:50.833Z,1000.21
2018-11-05T02:21:51.158Z,1000.17
2018-11-05T02:22:51.358Z,1000.13
2018-11-05T02:23:51.572Z,1000.11
2018-11-05T02:24:51.678Z,1000.08
2018-11-05T02:25:51.775Z,1000.05
2018-11-05T02:26:51.905Z,1000.05
2018-11-05T02:27:52.022Z,1000.01
2018-11-05T02:28:52.068Z,1000.05
2018-11-05T02:29:52.507Z,1000.01
2018-11-05T02:30:52.573Z,1000.05
2018-11-05T02:31:52.683Z,1000.02
2018-11-05T02:32:52.749Z,1000.04
2018-11-05T02:33:52.929Z,1000.04
2018-11-05T02:34:53.081Z,1000.06
2018-11-05T02:35:53.203Z,1000.09
2018-11-05T02:36:53.393Z,1000.19
2018-11-05T02:37:53.585Z,1000.20
2018-11-05T02:38:56.191Z,1000.18
2018-11-05T02:39:53.859Z,1000.15
2018-11-05T02:40:54.925Z,1000.10
2018-11-05T02:41:54.019Z,1000.12
2018-11-05T02:42:53.967Z,1000.02
2018-11-05T02:43:54.299Z,1000.01
2018-11-05T02:44:54.574Z,1000.02
2018-11-05T02:45:54.852Z,1000.07
2018-11-05T02:46:55.132Z,1000.10
2018-11-05T02:47:55.434Z,1000.12
2018-11-05T02:48:55.852Z,1000.10
2018-11-05T02:49:56.228Z,1000.07
2018-11-05T02:50:56.621Z,1000.05
2018-11-05T02:51:56.907Z,999.95
2018-11-05T02:52:57.257Z,999.88
2018-11-05T02:53:57.631Z,999.95
2018-11-05T02:54:57.937Z,999.97
2018-11-05T02:55:58.335Z,999.93
2018-11-05T02:56:58.678Z,999.95
2018-11-05T02:57:58.959Z,999.98
2018-11-05T02:58:59.410Z,999.93
2018-11-05T02:59:59.664Z,999.90
2018-11-05T03:01:00.026Z,1000.01
2018-11-05T03:02:00.351Z,999.97
2018-11-05T03:03:00.677Z,999.98
2018-11-05T03:04:00.965Z,999.96
2018-11-05T03:05:01.289Z,999.93
2018-11-05T03:06:01.390Z,999.93
2018-11-05T03:07:01.825Z,999.95
2018-11-05T03:08:02.324Z,999.85
2018-11-05T03:09:02.785Z,999.82
2018-11-05T03:10:02.935Z,999.92
2018-11-05T03:11:03.550Z,999.81
2018-11-05T03:12:04.389Z,999.86
2018-11-05T03:13:04.664Z,999.74
2018-11-05T03:14:04.904Z,999.81
2018-11-05T03:15:05.320Z,999.84
2018-11-05T03:16:05.631Z,999.76
2018-11-05T03:17:05.965Z,999.73
2018-11-05T03:18:05.983Z,999.68
2018-11-05T03:19:06.166Z,999.67
2018-11-05T03:20:06.481Z,999.72
2018-11-05T03:21:06.341Z,999.59
2018-11-05T03:22:06.399Z,999.64
2018-11-05T03:23:06.495Z,999.75
2018-11-05T03:24:06.607Z,999.72
2018-11-05T03:25:06.925Z,999.81
2018-11-05T03:26:07.133Z,999.79
2018-11-05T03:27:07.235Z,999.78
2018-11-05T03:28:07.203Z,999.77
2018-11-05T03:29:07.494Z,999.81
2018-11-05T03:30:07.631Z,999.70
2018-11-05T03:31:07.592Z,999.72
2018-11-05T03:32:07.942Z,999.63
2018-11-05T03:33:08.583Z,999.55
2018-11-05T03:34:08.468Z,999.67
2018-11-05T03:35:09.426Z,999.66
2018-11-05T03:36:09.724Z,999.73
2018-11-05T03:37:09.594Z,999.66
2018-11-05T03:38:09.872Z,999.70
2018-11-05T03:39:10.215Z,999.72
2018-11-05T03:40:10.228Z,999.70
2018-11-05T03:41:10.425Z,999.64
2018-11-05T03:42:10.836Z,999.68
2018-11-05T03:43:10.949Z,999.60
2018-11-05T03:44:11.263Z,999.60
2018-11-05T03:45:11.637Z,999.59
2018-11-05T03:46:12.003Z,999.58
2018-11-05T03:47:12.479Z,999.60
2018-11-05T03:48:12.837Z,999.54
2018-11-05T03:49:13.153Z,999.65
2018-11-05T03:50:13.741Z,999.61
2018-11-05T03:51:13.472Z,999.65
2018-11-05T03:52:13.786Z,999.60
2018-11-05T03:53:14.155Z,999.49
2018-11-05T03:54:14.552Z,999.45
2018-11-05T03:55:15.376Z,999.41
2018-11-05T03:56:15.202Z,999.35
2018-11-05T03:57:15.622Z,999.38
2018-11-05T03:58:15.623Z,999.44
2018-11-05T03:59:15.900Z,999.46
2018-11-05T04:00:16.601Z,999.51
2018-11-05T04:01:16.644Z,999.50
2018-11-05T04:02:17.037Z,999.48
2018-11-05T04:03:17.531Z,999.46
2018-11-05T04:04:18.278Z,999.52
2018-11-05T04:05:18.752Z,999.55
2018-11-05T04:06:19.375Z,999.56
2018-11-05T04:07:19.697Z,999.58
2018-11-05T04:08:19.900Z,999.67
2018-11-05T04:09:19.913Z,999.61
2018-11-05T04:10:20.118Z,999.60
2018-11-05T04:11:20.229Z,999.55
2018-11-05T04:12:20.759Z,999.59
2018-11-05T04:13:21.127Z,999.52
2018-11-05T04:14:21.575Z,999.42
2018-11-05T04:15:21.672Z,999.43
2018-11-05T04:16:21.781Z,999.47
2018-11-05T04:17:21.903Z,999.44
2018-11-05T04:18:22.000Z,999.53
2018-11-05T04:19:22.004Z,999.52
2018-11-05T04:20:21.908Z,999.47
2018-11-05T04:21:22.392Z,999.57
2018-11-05T04:22:22.311Z,999.45
2018-11-05T04:23:22.557Z,999.41
2018-11-05T04:24:22.757Z,999.46
2018-11-05T04:25:22.960Z,999.48
2018-11-05T04:26:23.075Z,999.46
2018-11-05T04:27:23.208Z,999.46
2018-11-05T04:28:23.401Z,999.54
2018-11-05T04:29:23.594Z,999.50
2018-11-05T04:30:24.098Z,999.44
2018-11-05T04:31:24.039Z,999.47
2018-11-05T04:32:24.002Z,999.50
2018-11-05T04:33:24.530Z,999.55
2018-11-05T04:34:24.306Z,999.62
2018-11-05T04:35:24.773Z,999.58
2018-11-05T04:36:25.132Z,999.56
2018-11-05T04:37:25.439Z,999.56
2018-11-05T04:38:25.860Z,999.51
2018-11-05T04:39:26.286Z,999.47
2018-11-05T04:40:26.694Z,999.34
2018-11-05T04:41:27.112Z,999.32
2018-11-05T04:42:27.516Z,999.37
2018-11-05T04:43:27.871Z,999.40
2018-11-05T04:44:28.288Z,999.46
2018-11-05T04:45:28.695Z,999.46
2018-11-05T04:46:29.095Z,999.44
2018-11-05T04:47:29.546Z,999.46
2018-11-05T04:48:29.851Z,999.47
2018-11-05T04:49:30.469Z,999.57
2018-11-05T04:50:30.416Z,999.62
2018-11-05T04:51:30.980Z,999.64
2018-11-05T04:52:30.967Z,999.64
2018-11-05T04:53:31.391Z,999.65
2018-11-05T04:54:31.961Z,999.62
2018-11-05T04:55:31.908Z,999.69
2018-11-05T04:56:32.225Z,999.61
2018-11-05T04:57:32.636Z,999.54
2018-11-05T04:58:33.044Z,999.51
2018-11-05T04:59:34.368Z,999.56
2018-11-05T05:00:34.678Z,999.50
2018-11-05T05:01:34.507Z,999.49
2018-11-05T05:02:35.000Z,999.60
2018-11-05T05:03:35.223Z,999.45
2018-11-05T05:04:35.421Z,999.44
2018-11-05T05:05:35.530Z,999.42
2018-11-05T05:06:35.958Z,999.39
2018-11-05T05:07:35.993Z,999.50
2018-11-05T05:08:36.127Z,999.45
2018-11-05T05:09:36.375Z,999.43
2018-11-05T05:10:36.589Z,999.49
2018-11-05T05:11:36.894Z,999.50
2018-11-05T05:12:37.086Z,999.51
2018-11-05T05:13:37.106Z,999.52
2018-11-05T05:14:37.387Z,999.44
2018-11-05T05:15:37.565Z,999.34
2018-11-05T05:16:37.693Z,999.45
2018-11-05T05:17:37.895Z,999.38
2018-11-05T05:18:38.300Z,999.35
2018-11-05T05:19:38.586Z,999.43
2018-11-05T05:20:38.971Z,999.35
2018-11-05T05:21:39.048Z,999.36
2018-11-05T05:22:39.329Z,999.44
2018-11-05T05:23:39.150Z,999.39
2018-11-05T05:24:39.209Z,999.40
2018-11-05T05:25:39.858Z,999.49
2018-11-05T05:26:39.382Z,999.47
2018-11-05T05:27:39.283Z,999.46
2018-11-05T05:28:39.523Z,999.49
2018-11-05T05:29:39.595Z,999.47
2018-11-05T05:30:39.365Z,999.44
2018-11-05T05:31:39.817Z,999.50
2018-11-05T05:32:40.140Z,999.51
2018-11-05T05:33:40.765Z,999.52
2018-11-05T05:34:41.553Z,999.47
2018-11-05T05:35:41.453Z,999.44
2018-11-05T05:36:41.810Z,999.44
2018-11-05T05:37:42.225Z,999.50
2018-11-05T05:38:42.795Z,999.41
2018-11-05T05:39:42.956Z,999.46
2018-11-05T05:40:42.927Z,999.65
2018-11-05T05:41:43.228Z,999.61
2018-11-05T05:42:43.512Z,999.64
2018-11-05T05:43:43.946Z,999.65
2018-11-05T05:44:44.379Z,999.65
2018-11-05T05:45:44.318Z,999.63
2018-11-05T05:46:44.668Z,999.49
2018-11-05T05:47:45.253Z,999.56
2018-11-05T05:48:45.199Z,999.55
2018-11-05T05:49:45.595Z,999.65
2018-11-05T05:50:45.994Z,999.63
2018-11-05T05:51:46.626Z,999.66
2018-11-05T05:52:46.562Z,999.70
2018-11-05T05:53:46.948Z,999.85
2018-11-05T05:54:47.360Z,999.92
2018-11-05T05:55:47.709Z,999.93
2018-11-05T05:56:48.359Z,999.85
2018-11-05T05:57:48.872Z,999.83
2018-11-05T05:58:49.187Z,999.83
2018-11-05T05:59:49.481Z,999.77
2018-11-05T06:00:49.915Z,999.81
2018-11-05T06:01:50.226Z,999.73
2018-11-05T06:02:50.747Z,999.81
2018-11-05T06:03:50.754Z,999.75
2018-11-05T06:04:50.668Z,999.79
2018-11-05T06:05:51.183Z,999.79
2018-11-05T06:06:51.144Z,999.79
2018-11-05T06:07:51.500Z,999.75
2018-11-05T06:08:51.532Z,999.74
2018-11-05T06:09:52.026Z,999.79
2018-11-05T06:10:52.039Z,999.82
2018-11-05T06:11:52.044Z,999.85
2018-11-05T06:12:52.179Z,999.83
2018-11-05T06:13:52.469Z,999.88
2018-11-05T06:14:52.770Z,999.75
2018-11-05T06:15:53.095Z,999.83
2018-11-05T06:16:53.047Z,999.74
2018-11-05T06:17:53.204Z,999.77
2018-11-05T06:18:53.321Z,999.70
2018-11-05T06:19:53.506Z,999.71
2018-11-05T06:20:53.687Z,999.72
2018-11-05T06:21:53.949Z,999.71
2018-11-05T06:22:54.017Z,999.64
2018-11-05T06:23:53.936Z,999.64
2018-11-05T06:24:54.300Z,999.59
2018-11-05T06:25:54.633Z,999.54
2018-11-05T06:26:55.034Z,999.52
2018-11-05T06:27:55.638Z,999.46
2018-11-05T06:28:55.552Z,999.39
2018-11-05T06:29:55.879Z,999.46
2018-11-05T06:30:56.298Z,999.44
2018-11-05T06:31:56.673Z,999.46
2018-11-05T06:32:57.018Z,999.52
2018-11-05T06:33:57.401Z,999.49
2018-11-05T06:34:57.801Z,999.53
2018-11-05T06:35:58.182Z,999.41
2018-11-05T06:36:58.634Z,999.50
2018-11-05T06:37:58.961Z,999.51
2018-11-05T06:38:59.590Z,999.51
2018-11-05T06:39:59.416Z,999.50
2018-11-05T06:40:59.803Z,999.55
2018-11-05T06:42:00.194Z,999.50
2018-11-05T06:43:00.600Z,999.56
2018-11-05T06:44:01.006Z,999.57
2018-11-05T06:45:01.479Z,999.65
2018-11-05T06:46:01.762Z,999.58
2018-11-05T06:47:02.167Z,999.47
2018-11-05T06:48:02.396Z,999.49
2018-11-05T06:49:02.796Z,999.51
2018-11-05T06:50:02.582Z,999.46
2018-11-05T06:51:02.698Z,999.46
2018-11-05T06:52:02.499Z,999.47
2018-11-05T06:53:03.560Z,999.48
2018-11-05T06:54:04.075Z,999.47
2018-11-05T06:55:04.400Z,999.50
2018-11-05T06:56:04.629Z,999.44
2018-11-05T06:57:04.931Z,999.46
2018-11-05T06:58:05.355Z,999.40
2018-11-05T06:59:05.760Z,999.50
2018-11-05T07:00:05.969Z,999.49
2018-11-05T07:01:06.501Z,999.41
2018-11-05T07:02:06.815Z,999.49
2018-11-05T07:03:07.101Z,999.50
2018-11-05T07:04:07.102Z,999.53
2018-11-05T07:05:07.190Z,999.45
2018-11-05T07:06:07.010Z,999.53
2018-11-05T07:07:07.464Z,999.48
2018-11-05T07:09:07.721Z,999.48
2018-11-05T07:10:07.990Z,999.49
2018-11-05T07:11:07.829Z,999.50
2018-11-05T07:12:08.752Z,999.57
2018-11-05T07:13:08.898Z,999.58
2018-11-05T07:14:09.024Z,999.57
2018-11-05T07:15:09.061Z,999.60
2018-11-05T07:17:09.397Z,999.50
2018-11-05T07:18:09.570Z,999.60
2018-11-05T07:19:09.841Z,999.54
2018-11-05T07:20:09.823Z,999.65
2018-11-05T07:21:09.942Z,999.64
2018-11-05T07:22:10.324Z,999.74
2018-11-05T07:23:10.847Z,999.65
2018-11-05T07:24:11.224Z,999.69
2018-11-05T07:25:12.062Z,999.64
2018-11-05T07:26:11.785Z,999.78
2018-11-05T07:28:12.251Z,999.76
2018-11-05T07:29:12.641Z,999.72
2018-11-05T07:30:13.223Z,999.74
2018-11-05T07:31:13.258Z,999.66
2018-11-05T07:32:13.745Z,999.70
2018-11-05T07:33:14.210Z,999.75
2018-11-05T07:34:14.596Z,999.59
2018-11-05T07:35:15.416Z,999.58
2018-11-05T07:36:15.107Z,999.58
2018-11-05T07:37:14.931Z,999.58
2018-11-05T07:38:15.392Z,999.54
2018-11-05T07:39:15.801Z,999.48
2018-11-05T07:40:16.358Z,999.55
2018-11-05T07:41:16.507Z,999.65
2018-11-05T07:42:16.938Z,999.63
2018-11-05T07:43:17.336Z,999.64
2018-11-05T07:44:17.657Z,999.64
2018-11-05T07:45:18.558Z,999.60
2018-11-05T07:46:18.870Z,999.56
2018-11-05T07:47:18.990Z,999.64
2018-11-05T07:48:19.067Z,999.57
2018-11-05T07:49:19.200Z,999.61
2018-11-05T07:50:19.413Z,999.58
2018-11-05T07:51:19.943Z,999.55
2018-11-05T07:52:20.250Z,999.61
2018-11-05T07:53:20.858Z,999.64
2018-11-05T07:54:20.963Z,999.65
2018-11-05T07:55:20.970Z,999.68
2018-11-05T07:56:20.576Z,999.68
2018-11-05T07:57:20.942Z,999.71
2018-11-05T07:58:21.096Z,999.65
2018-11-05T07:59:21.123Z,999.64
2018-11-05T08:00:21.218Z,999.56
2018-11-05T08:01:21.835Z,999.60
2018-11-05T08:02:21.955Z,999.75
2018-11-05T08:03:22.043Z,999.56
2018-11-05T08:04:22.352Z,999.61
2018-11-05T08:05:22.581Z,999.62
2018-11-05T08:06:22.682Z,999.73
2018-11-05T08:07:22.868Z,999.71
2018-11-05T08:08:23.080Z,999.70
2018-11-05T08:09:23.216Z,999.64
2018-11-05T08:10:23.511Z,999.66
2018-11-05T08:11:23.760Z,999.71
2018-11-05T08:12:23.849Z,999.71
2018-11-05T08:13:23.918Z,999.58
2018-11-05T08:14:24.180Z,999.60
2018-11-05T08:15:24.148Z,999.62
2018-11-05T08:16:24.106Z,999.67
2018-11-05T08:17:24.603Z,999.63
2018-11-05T08:18:24.945Z,999.53
2018-11-05T08:19:25.492Z,999.52
2018-11-05T08:20:25.304Z,999.53
2018-11-05T08:21:25.711Z,999.53
2018-11-05T08:22:26.090Z,999.55
2018-11-05T08:23:26.483Z,999.54
2018-11-05T08:24:26.998Z,999.61
2018-11-05T08:25:26.812Z,999.64
2018-11-05T08:26:27.354Z,999.53
2018-11-05T08:27:27.287Z,999.54
2018-11-05T08:28:27.686Z,999.59
2018-11-05T08:29:28.239Z,999.62
2018-11-05T08:30:28.285Z,999.59
2018-11-05T08:31:28.122Z,999.59
2018-11-05T08:32:28.557Z,999.59
2018-11-05T08:33:29.847Z,999.69
2018-11-05T08:34:28.735Z,999.67
2018-11-05T08:35:29.327Z,999.60
2018-11-05T08:36:29.202Z,999.60
2018-11-05T08:37:29.818Z,999.55
2018-11-05T08:38:29.797Z,999.54
2018-11-05T08:39:30.224Z,999.54
2018-11-05T08:40:30.507Z,999.56
2018-11-05T08:41:30.826Z,999.55
2018-11-05T08:42:31.359Z,999.47
2018-11-05T08:43:31.261Z,999.48
2018-11-05T08:44:31.755Z,999.51
2018-11-05T08:45:32.228Z,999.41
2018-11-05T08:46:32.603Z,999.56
2018-11-05T08:47:32.937Z,999.49
2018-11-05T08:48:34.235Z,999.47
2018-11-05T08:49:34.333Z,999.46
2018-11-05T08:50:34.523Z,999.55
2018-11-05T08:51:35.200Z,999.51
2018-11-05T08:52:35.273Z,999.52
2018-11-05T08:53:35.543Z,999.52
2018-11-05T08:54:36.000Z,999.52
2018-11-05T08:56:36.016Z,999.49
2018-11-05T08:57:36.359Z,999.33
2018-11-05T08:58:36.550Z,999.49
2018-11-05T08:59:36.540Z,999.48
2018-11-05T09:00:36.756Z,999.47
2018-11-05T09:01:36.409Z,999.56
2018-11-05T09:02:37.064Z,999.47
2018-11-05T09:03:37.187Z,999.50
2018-11-05T09:04:37.214Z,999.59
2018-11-05T09:05:37.353Z,999.60
2018-11-05T09:06:37.520Z,999.53
2018-11-05T09:07:37.628Z,999.54
2018-11-05T09:08:37.736Z,999.51
2018-11-05T09:09:37.943Z,999.48
2018-11-05T09:10:38.430Z,999.40
2018-11-05T09:11:38.644Z,999.42
2018-11-05T09:12:38.445Z,999.43
2018-11-05T09:13:38.749Z,999.41
2018-11-05T09:14:39.200Z,999.41
2018-11-05T09:15:39.172Z,999.37
2018-11-05T09:16:39.697Z,999.28
2018-11-05T09:17:39.516Z,999.24
2018-11-05T09:18:39.750Z,999.23
2018-11-05T09:19:39.549Z,999.19
2018-11-05T09:20:39.980Z,999.21
2018-11-05T09:21:40.311Z,999.32
2018-11-05T09:22:40.899Z,999.29
2018-11-05T09:23:40.846Z,999.32
2018-11-05T09:24:41.244Z,999.29
2018-11-05T09:25:41.574Z,999.22
2018-11-05T09:26:42.137Z,999.21
2018-11-05T09:27:42.032Z,999.25
2018-11-05T09:28:42.566Z,999.27
2018-11-05T09:29:42.451Z,999.22
2018-11-05T09:30:42.853Z,999.27
2018-11-05T09:31:43.267Z,999.16
2018-11-05T09:32:43.653Z,999.20
2018-11-05T09:33:44.095Z,999.12
2018-11-05T09:34:44.492Z,999.20
2018-11-05T09:35:44.813Z,999.18
2018-11-05T09:36:45.236Z,999.19
2018-11-05T09:37:45.675Z,999.24
2018-11-05T09:38:46.047Z,999.28
2018-11-05T09:39:46.451Z,999.28
2018-11-05T09:40:47.056Z,999.26
2018-11-05T09:41:46.911Z,999.19
2018-11-05T09:42:47.369Z,999.25
2018-11-05T09:43:47.526Z,999.21
2018-11-05T09:44:47.614Z,999.27
2018-11-05T09:45:48.417Z,999.23
2018-11-05T09:46:49.013Z,999.19
2018-11-05T09:47:49.253Z,999.27
2018-11-05T09:48:49.386Z,999.20
2018-11-05T09:49:49.880Z,999.18
2018-11-05T09:50:50.180Z,999.13
2018-11-05T09:51:50.607Z,999.20
2018-11-05T09:52:51.023Z,999.19
2018-11-05T09:53:51.349Z,999.19
2018-11-05T09:54:51.275Z,999.20
2018-11-05T09:55:51.971Z,999.29
2018-11-05T09:56:51.955Z,999.21
2018-11-05T09:57:51.840Z,999.28
2018-11-05T09:58:52.311Z,999.29
2018-11-05T09:59:52.532Z,999.23
2018-11-05T10:00:55.684Z,999.25
2018-11-05T10:01:52.802Z,999.28
2018-11-05T10:02:53.192Z,999.31
2018-11-05T10:03:53.383Z,999.35
2018-11-05T10:04:53.902Z,999.32
2018-11-05T10:05:53.901Z,999.34
2018-11-05T10:06:54.155Z,999.36
2018-11-05T10:07:54.311Z,999.44
2018-11-05T10:09:54.293Z,999.38
2018-11-05T10:10:54.628Z,999.36
2018-11-05T10:11:54.961Z,999.45
2018-11-05T10:12:55.469Z,999.44
2018-11-05T10:13:55.804Z,999.43
2018-11-05T10:14:56.290Z,999.45
2018-11-05T10:15:56.638Z,999.39
2018-11-05T10:16:57.047Z,999.35
2018-11-05T10:17:57.358Z,999.37
2018-11-05T10:18:57.780Z,999.37
2018-11-05T10:19:58.299Z,999.34
2018-11-05T10:20:58.194Z,999.27
2018-11-05T10:21:58.508Z,999.31
2018-11-05T10:22:58.970Z,999.28
2018-11-05T10:23:59.403Z,999.27
2018-11-05T10:24:59.800Z,999.27
2018-11-05T10:26:00.124Z,999.28
2018-11-05T10:27:00.537Z,999.23
2018-11-05T10:28:00.915Z,999.24
2018-11-05T10:29:01.263Z,999.19
2018-11-05T10:30:01.531Z,999.19
2018-11-05T10:31:02.350Z,999.16
2018-11-05T10:32:02.335Z,999.20
2018-11-05T10:33:02.866Z,999.14
2018-11-05T10:35:02.712Z,999.20
2018-11-05T10:36:03.289Z,999.20
2018-11-05T10:37:03.598Z,999.24
2018-11-05T10:38:04.424Z,999.19
2018-11-05T10:39:04.838Z,999.17
2018-11-05T10:40:04.347Z,999.11
2018-11-05T10:41:05.056Z,999.09
2018-11-05T10:42:05.269Z,998.99
2018-11-05T10:43:05.386Z,999.06
2018-11-05T10:44:05.852Z,999.13
2018-11-05T10:45:06.063Z,999.12
2018-11-05T10:46:06.229Z,999.19
2018-11-05T10:47:06.741Z,999.03
2018-11-05T10:48:06.637Z,999.05
2018-11-05T10:49:06.647Z,999.00
2018-11-05T10:50:07.126Z,998.93
2018-11-05T10:51:07.313Z,998.93
2018-11-05T10:52:07.694Z,998.92
2018-11-05T10:53:07.709Z,998.92
2018-11-05T10:54:07.803Z,998.97
2018-11-05T10:55:08.015Z,998.92
2018-11-05T10:56:07.716Z,998.94
2018-11-05T10:57:08.093Z,998.96
2018-11-05T10:58:08.932Z,998.86
2018-11-05T10:59:08.700Z,998.83
2018-11-05T11:00:09.304Z,998.88
2018-11-05T11:01:09.235Z,998.89
2018-11-05T11:02:09.745Z,998.85
2018-11-05T11:03:09.913Z,998.87
2018-11-05T11:04:09.939Z,998.90
2018-11-05T11:05:10.434Z,998.88
2018-11-05T11:06:10.270Z,998.84
2018-11-05T11:07:10.588Z,998.93
2018-11-05T11:08:10.896Z,998.92
2018-11-05T11:10:11.332Z,998.95
2018-11-05T11:11:11.733Z,999.01
2018-11-05T11:12:12.059Z,999.03
2018-11-05T11:13:12.457Z,998.91
2018-11-05T11:14:12.787Z,998.92
2018-11-05T11:15:13.647Z,998.92
2018-11-05T11:16:13.413Z,998.87
2018-11-05T11:17:13.819Z,998.88
2018-11-05T11:18:14.112Z,998.89
2018-11-05T11:19:15.688Z,998.91
2018-11-05T11:20:14.944Z,998.94
2018-11-05T11:21:14.774Z,998.80
2018-11-05T11:22:15.409Z,998.79
2018-11-05T11:23:15.604Z,998.71
2018-11-05T11:24:15.712Z,998.68
2018-11-05T11:25:16.469Z,998.74
2018-11-05T11:26:16.388Z,998.70
2018-11-05T11:27:16.859Z,998.76
2018-11-05T11:28:17.410Z,998.71
2018-11-05T11:29:18.001Z,998.66
2018-11-05T11:30:18.563Z,998.72
2018-11-05T11:31:17.916Z,998.75
2018-11-05T11:32:18.911Z,998.74
2018-11-05T11:33:19.530Z,998.79
2018-11-05T11:34:19.846Z,998.69
2018-11-05T11:35:20.076Z,998.65
2018-11-05T11:36:20.382Z,998.66
2018-11-05T11:37:20.423Z,998.68
2018-11-05T11:38:20.592Z,998.71
2018-11-05T11:39:20.798Z,998.62
2018-11-05T11:40:21.111Z,998.55
2018-11-05T11:41:21.229Z,998.55
2018-11-05T11:42:21.641Z,998.58
2018-11-05T11:43:21.849Z,998.59
2018-11-05T11:44:22.022Z,998.54
2018-11-05T11:45:21.958Z,998.52
2018-11-05T11:46:21.891Z,998.41
2018-11-05T11:47:22.154Z,998.41
2018-11-05T11:48:22.381Z,998.34
2018-11-05T11:49:22.472Z,998.34
2018-11-05T11:50:22.555Z,998.34
2018-11-05T11:51:22.665Z,998.33
2018-11-05T11:52:22.798Z,998.31
2018-11-05T11:53:22.927Z,998.36
2018-11-05T11:54:23.109Z,998.29
2018-11-05T11:55:23.363Z,998.32
2018-11-05T11:56:23.551Z,998.31
2018-11-05T11:57:24.086Z,998.32
2018-11-05T11:58:23.915Z,998.30
2018-11-05T11:59:24.002Z,998.20
2018-11-05T12:00:24.117Z,998.23
2018-11-05T12:01:24.169Z,998.15
2018-11-05T12:02:24.214Z,998.20
2018-11-05T12:03:24.418Z,998.16
2018-11-05T12:04:24.382Z,998.11
2018-11-05T12:05:24.825Z,998.08
2018-11-05T12:06:25.220Z,998.07
2018-11-05T12:07:25.343Z,998.04
2018-11-05T12:08:25.148Z,997.95
2018-11-05T12:09:25.530Z,997.94
2018-11-05T12:11:25.879Z,997.93
2018-11-05T12:12:27.462Z,997.86
2018-11-05T12:13:26.262Z,997.91
2018-11-05T12:14:26.853Z,997.92
2018-11-05T12:15:26.678Z,997.84
2018-11-05T12:16:27.002Z,997.86
2018-11-05T12:17:27.501Z,997.89
2018-11-05T12:18:27.913Z,997.88
2018-11-05T12:19:28.587Z,997.87
2018-11-05T12:20:28.759Z,997.78
2018-11-05T12:21:28.577Z,997.87
2018-11-05T12:22:28.888Z,997.87
2018-11-05T12:23:29.484Z,997.90
2018-11-05T12:24:29.396Z,997.86
2018-11-05T12:25:29.889Z,997.88
2018-11-05T12:26:29.782Z,997.83
2018-11-05T12:27:30.189Z,997.84
2018-11-05T12:28:30.569Z,997.90
2018-11-05T12:29:30.984Z,997.91
2018-11-05T12:30:31.397Z,997.86
2018-11-05T12:31:31.706Z,997.86
2018-11-05T12:32:32.123Z,997.81
2018-11-05T12:33:32.439Z,997.76
2018-11-05T12:34:32.873Z,997.72
2018-11-05T12:35:33.248Z,997.72